sensor_id;sensor_type;location;lat;lon;timestamp;P1;durP1;ratioP1;P2;durP2;ratioP2
23632;SDS011;11993;48.748;9.166;2024-01-30T00:02:14;6.60;;;4.10;;
23632;SDS011;11993;48.748;9.166;2024-01-30T00:04:39;9.95;;;4.57;;
23632;SDS011;11993;48.748;9.166;2024-01-30T00:07:05;7.38;;;4.32;;
23632;SDS011;11993;48.748;9.166;2024-01-30T00:09:30;7.88;;;4.35;;
23632;SDS011;11993;48.748;9.166;2024-01-30T00:11:56;9.98;;;5.03;;
23632;SDS011;11993;48.748;9.166;2024-01-30T00:14:21;7.40;;;4.90;;
23632;SDS011;11993;48.748;9.166;2024-01-30T00:16:48;7.57;;;4.57;;
23632;SDS011;11993;48.748;9.166;2024-01-30T00:19:13;8.57;;;5.10;;
23632;SDS011;11993;48.748;9.166;2024-01-30T00:21:39;6.93;;;4.65;;
23632;SDS011;11993;48.748;9.166;2024-01-30T00:24:04;7.55;;;4.88;;
23632;SDS011;11993;48.748;9.166;2024-01-30T00:26:30;8.18;;;4.63;;
23632;SDS011;11993;48.748;9.166;2024-01-30T00:28:56;8.52;;;4.70;;
23632;SDS011;11993;48.748;9.166;2024-01-30T00:31:21;7.90;;;4.90;;
23632;SDS011;11993;48.748;9.166;2024-01-30T00:33:47;10.70;;;5.03;;
23632;SDS011;11993;48.748;9.166;2024-01-30T00:36:12;7.43;;;5.07;;
23632;SDS011;11993;48.748;9.166;2024-01-30T00:38:38;7.10;;;4.60;;
23632;SDS011;11993;48.748;9.166;2024-01-30T00:41:03;8.50;;;5.40;;
23632;SDS011;11993;48.748;9.166;2024-01-30T00:43:29;9.25;;;5.18;;
23632;SDS011;11993;48.748;9.166;2024-01-30T00:45:56;7.82;;;5.03;;
23632;SDS011;11993;48.748;9.166;2024-01-30T00:48:23;8.02;;;4.93;;
23632;SDS011;11993;48.748;9.166;2024-01-30T00:50:48;7.75;;;5.13;;
23632;SDS011;11993;48.748;9.166;2024-01-30T00:53:14;7.90;;;4.93;;
23632;SDS011;11993;48.748;9.166;2024-01-30T00:55:39;7.22;;;4.55;;
23632;SDS011;11993;48.748;9.166;2024-01-30T00:58:05;6.82;;;4.43;;
23632;SDS011;11993;48.748;9.166;2024-01-30T01:00:31;7.63;;;4.80;;
23632;SDS011;11993;48.748;9.166;2024-01-30T01:03:00;9.40;;;4.97;;
23632;SDS011;11993;48.748;9.166;2024-01-30T01:05:26;8.23;;;5.10;;
23632;SDS011;11993;48.748;9.166;2024-01-30T01:07:51;8.15;;;4.72;;
23632;SDS011;11993;48.748;9.166;2024-01-30T01:10:17;5.82;;;4.38;;
23632;SDS011;11993;48.748;9.166;2024-01-30T01:12:43;7.30;;;4.68;;
23632;SDS011;11993;48.748;9.166;2024-01-30T01:15:12;8.77;;;4.72;;
23632;SDS011;11993;48.748;9.166;2024-01-30T01:17:38;8.60;;;4.13;;
23632;SDS011;11993;48.748;9.166;2024-01-30T01:20:05;8.77;;;4.30;;
23632;SDS011;11993;48.748;9.166;2024-01-30T01:22:32;8.57;;;4.65;;
23632;SDS011;11993;48.748;9.166;2024-01-30T01:25:00;7.45;;;4.40;;
23632;SDS011;11993;48.748;9.166;2024-01-30T01:27:26;8.80;;;4.60;;
23632;SDS011;11993;48.748;9.166;2024-01-30T01:29:52;6.38;;;4.30;;
23632;SDS011;11993;48.748;9.166;2024-01-30T01:32:18;7.60;;;4.78;;
23632;SDS011;11993;48.748;9.166;2024-01-30T01:34:45;8.57;;;4.57;;
23632;SDS011;11993;48.748;9.166;2024-01-30T01:37:11;8.05;;;4.80;;
23632;SDS011;11993;48.748;9.166;2024-01-30T01:39:36;6.38;;;4.55;;
23632;SDS011;11993;48.748;9.166;2024-01-30T01:42:02;8.07;;;4.35;;
23632;SDS011;11993;48.748;9.166;2024-01-30T01:44:28;10.98;;;4.80;;
23632;SDS011;11993;48.748;9.166;2024-01-30T01:46:53;6.57;;;4.35;;
23632;SDS011;11993;48.748;9.166;2024-01-30T01:49:19;7.63;;;4.30;;
23632;SDS011;11993;48.748;9.166;2024-01-30T01:51:46;7.25;;;4.40;;
23632;SDS011;11993;48.748;9.166;2024-01-30T01:54:13;9.02;;;5.25;;
23632;SDS011;11993;48.748;9.166;2024-01-30T01:56:40;6.32;;;4.43;;
23632;SDS011;11993;48.748;9.166;2024-01-30T01:59:08;7.95;;;4.55;;
23632;SDS011;11993;48.748;9.166;2024-01-30T02:01:34;5.53;;;3.83;;
23632;SDS011;11993;48.748;9.166;2024-01-30T02:04:06;7.90;;;4.30;;
23632;SDS011;11993;48.748;9.166;2024-01-30T02:06:33;7.55;;;4.18;;
23632;SDS011;11993;48.748;9.166;2024-01-30T02:08:59;7.82;;;4.70;;
23632;SDS011;11993;48.748;9.166;2024-01-30T02:11:24;8.02;;;3.90;;
23632;SDS011;11993;48.748;9.166;2024-01-30T02:13:50;8.45;;;4.90;;
23632;SDS011;11993;48.748;9.166;2024-01-30T02:16:16;8.07;;;4.80;;
23632;SDS011;11993;48.748;9.166;2024-01-30T02:18:44;7.35;;;4.63;;
23632;SDS011;11993;48.748;9.166;2024-01-30T02:21:16;6.22;;;4.55;;
23632;SDS011;11993;48.748;9.166;2024-01-30T02:23:43;9.55;;;4.63;;
23632;SDS011;11993;48.748;9.166;2024-01-30T02:26:11;7.07;;;5.00;;
23632;SDS011;11993;48.748;9.166;2024-01-30T02:28:37;8.73;;;4.95;;
23632;SDS011;11993;48.748;9.166;2024-01-30T02:31:03;7.90;;;4.70;;
23632;SDS011;11993;48.748;9.166;2024-01-30T02:33:29;10.10;;;4.60;;
23632;SDS011;11993;48.748;9.166;2024-01-30T02:35:54;8.35;;;5.65;;
23632;SDS011;11993;48.748;9.166;2024-01-30T02:38:20;7.00;;;4.78;;
23632;SDS011;11993;48.748;9.166;2024-01-30T02:40:45;10.23;;;5.80;;
23632;SDS011;11993;48.748;9.166;2024-01-30T02:43:11;7.25;;;5.10;;
23632;SDS011;11993;48.748;9.166;2024-01-30T02:45:37;8.93;;;4.53;;
23632;SDS011;11993;48.748;9.166;2024-01-30T02:48:03;8.07;;;4.93;;
23632;SDS011;11993;48.748;9.166;2024-01-30T02:50:28;8.32;;;4.80;;
23632;SDS011;11993;48.748;9.166;2024-01-30T02:52:54;7.57;;;4.95;;
23632;SDS011;11993;48.748;9.166;2024-01-30T02:55:19;8.68;;;4.40;;
23632;SDS011;11993;48.748;9.166;2024-01-30T02:57:45;7.05;;;4.97;;
23632;SDS011;11993;48.748;9.166;2024-01-30T03:00:11;9.40;;;5.13;;
23632;SDS011;11993;48.748;9.166;2024-01-30T03:02:37;8.95;;;5.00;;
23632;SDS011;11993;48.748;9.166;2024-01-30T03:05:02;9.75;;;5.53;;
23632;SDS011;11993;48.748;9.166;2024-01-30T03:07:30;11.30;;;5.70;;
23632;SDS011;11993;48.748;9.166;2024-01-30T03:09:55;9.40;;;4.53;;
23632;SDS011;11993;48.748;9.166;2024-01-30T03:12:21;10.30;;;5.22;;
23632;SDS011;11993;48.748;9.166;2024-01-30T03:14:47;7.30;;;4.80;;
23632;SDS011;11993;48.748;9.166;2024-01-30T03:17:13;7.97;;;5.30;;
23632;SDS011;11993;48.748;9.166;2024-01-30T03:19:38;9.43;;;5.75;;
23632;SDS011;11993;48.748;9.166;2024-01-30T03:22:04;8.05;;;5.32;;
23632;SDS011;11993;48.748;9.166;2024-01-30T03:24:30;10.15;;;5.03;;
23632;SDS011;11993;48.748;9.166;2024-01-30T03:26:55;7.60;;;5.10;;
23632;SDS011;11993;48.748;9.166;2024-01-30T03:29:21;8.73;;;5.20;;
23632;SDS011;11993;48.748;9.166;2024-01-30T03:31:47;11.90;;;5.15;;
23632;SDS011;11993;48.748;9.166;2024-01-30T03:34:12;6.47;;;4.68;;
23632;SDS011;11993;48.748;9.166;2024-01-30T03:36:38;9.07;;;5.53;;
23632;SDS011;11993;48.748;9.166;2024-01-30T03:39:03;7.22;;;5.30;;
23632;SDS011;11993;48.748;9.166;2024-01-30T03:41:29;7.03;;;5.05;;
23632;SDS011;11993;48.748;9.166;2024-01-30T03:43:55;10.30;;;5.40;;
23632;SDS011;11993;48.748;9.166;2024-01-30T03:46:20;8.07;;;5.15;;
23632;SDS011;11993;48.748;9.166;2024-01-30T03:48:46;8.15;;;5.32;;
23632;SDS011;11993;48.748;9.166;2024-01-30T03:51:12;8.77;;;4.65;;
23632;SDS011;11993;48.748;9.166;2024-01-30T03:53:41;8.45;;;5.10;;
23632;SDS011;11993;48.748;9.166;2024-01-30T03:56:07;7.70;;;5.00;;
23632;SDS011;11993;48.748;9.166;2024-01-30T03:58:33;7.40;;;5.28;;
23632;SDS011;11993;48.748;9.166;2024-01-30T04:00:59;7.65;;;5.22;;
23632;SDS011;11993;48.748;9.166;2024-01-30T04:03:24;8.60;;;5.07;;
23632;SDS011;11993;48.748;9.166;2024-01-30T04:05:51;9.65;;;5.53;;
23632;SDS011;11993;48.748;9.166;2024-01-30T04:08:17;10.02;;;5.30;;
23632;SDS011;11993;48.748;9.166;2024-01-30T04:10:43;7.07;;;4.63;;
23632;SDS011;11993;48.748;9.166;2024-01-30T04:13:09;7.70;;;5.28;;
23632;SDS011;11993;48.748;9.166;2024-01-30T04:15:34;7.50;;;4.82;;
23632;SDS011;11993;48.748;9.166;2024-01-30T04:18:00;8.30;;;4.70;;
23632;SDS011;11993;48.748;9.166;2024-01-30T04:20:25;7.20;;;4.60;;
23632;SDS011;11993;48.748;9.166;2024-01-30T04:22:51;7.13;;;4.93;;
23632;SDS011;11993;48.748;9.166;2024-01-30T04:25:17;7.45;;;5.50;;
23632;SDS011;11993;48.748;9.166;2024-01-30T04:27:42;8.18;;;5.10;;
23632;SDS011;11993;48.748;9.166;2024-01-30T04:30:08;11.77;;;6.03;;
23632;SDS011;11993;48.748;9.166;2024-01-30T04:32:34;10.10;;;4.85;;
23632;SDS011;11993;48.748;9.166;2024-01-30T04:35:00;10.85;;;5.53;;
23632;SDS011;11993;48.748;9.166;2024-01-30T04:37:26;8.15;;;5.18;;
23632;SDS011;11993;48.748;9.166;2024-01-30T04:39:51;10.93;;;5.20;;
23632;SDS011;11993;48.748;9.166;2024-01-30T04:42:17;7.70;;;4.90;;
23632;SDS011;11993;48.748;9.166;2024-01-30T04:44:42;9.57;;;5.93;;
23632;SDS011;11993;48.748;9.166;2024-01-30T04:47:08;9.23;;;5.60;;
23632;SDS011;11993;48.748;9.166;2024-01-30T04:49:36;10.40;;;5.85;;
23632;SDS011;11993;48.748;9.166;2024-01-30T04:52:01;8.57;;;5.45;;
23632;SDS011;11993;48.748;9.166;2024-01-30T04:54:27;9.77;;;5.65;;
23632;SDS011;11993;48.748;9.166;2024-01-30T04:56:53;8.60;;;5.85;;
23632;SDS011;11993;48.748;9.166;2024-01-30T04:59:18;10.95;;;6.13;;
23632;SDS011;11993;48.748;9.166;2024-01-30T05:01:44;10.13;;;5.47;;
23632;SDS011;11993;48.748;9.166;2024-01-30T05:04:09;8.60;;;5.25;;
23632;SDS011;11993;48.748;9.166;2024-01-30T05:06:36;8.77;;;5.20;;
23632;SDS011;11993;48.748;9.166;2024-01-30T05:09:02;9.95;;;5.85;;
23632;SDS011;11993;48.748;9.166;2024-01-30T05:11:29;11.43;;;6.60;;
23632;SDS011;11993;48.748;9.166;2024-01-30T05:13:55;10.15;;;5.72;;
23632;SDS011;11993;48.748;9.166;2024-01-30T05:16:20;9.68;;;5.72;;
23632;SDS011;11993;48.748;9.166;2024-01-30T05:18:46;9.75;;;5.45;;
23632;SDS011;11993;48.748;9.166;2024-01-30T05:21:11;8.38;;;5.72;;
23632;SDS011;11993;48.748;9.166;2024-01-30T05:23:37;8.27;;;5.57;;
23632;SDS011;11993;48.748;9.166;2024-01-30T05:26:02;8.40;;;5.82;;
23632;SDS011;11993;48.748;9.166;2024-01-30T05:28:29;10.93;;;6.22;;
23632;SDS011;11993;48.748;9.166;2024-01-30T05:30:55;9.30;;;5.95;;
23632;SDS011;11993;48.748;9.166;2024-01-30T05:33:21;9.70;;;5.43;;
23632;SDS011;11993;48.748;9.166;2024-01-30T05:35:47;9.20;;;6.00;;
23632;SDS011;11993;48.748;9.166;2024-01-30T05:38:13;9.98;;;6.10;;
23632;SDS011;11993;48.748;9.166;2024-01-30T05:40:40;11.70;;;6.40;;
23632;SDS011;11993;48.748;9.166;2024-01-30T05:43:05;12.32;;;6.18;;
23632;SDS011;11993;48.748;9.166;2024-01-30T05:45:31;9.30;;;6.28;;
23632;SDS011;11993;48.748;9.166;2024-01-30T05:47:56;9.32;;;5.57;;
23632;SDS011;11993;48.748;9.166;2024-01-30T05:50:22;9.60;;;6.38;;
23632;SDS011;11993;48.748;9.166;2024-01-30T05:52:48;15.77;;;8.32;;
23632;SDS011;11993;48.748;9.166;2024-01-30T05:55:14;10.10;;;6.65;;
23632;SDS011;11993;48.748;9.166;2024-01-30T05:57:39;10.82;;;5.63;;
23632;SDS011;11993;48.748;9.166;2024-01-30T06:00:05;11.80;;;5.95;;
23632;SDS011;11993;48.748;9.166;2024-01-30T06:02:32;19.17;;;11.93;;
23632;SDS011;11993;48.748;9.166;2024-01-30T06:04:58;10.57;;;6.07;;
23632;SDS011;11993;48.748;9.166;2024-01-30T06:07:23;10.10;;;5.75;;
23632;SDS011;11993;48.748;9.166;2024-01-30T06:09:49;9.30;;;4.60;;
23632;SDS011;11993;48.748;9.166;2024-01-30T06:12:15;10.10;;;4.50;;
23632;SDS011;11993;48.748;9.166;2024-01-30T06:14:40;9.38;;;5.13;;
23632;SDS011;11993;48.748;9.166;2024-01-30T06:17:07;7.30;;;4.28;;
23632;SDS011;11993;48.748;9.166;2024-01-30T06:19:33;9.43;;;4.90;;
23632;SDS011;11993;48.748;9.166;2024-01-30T06:21:59;6.90;;;4.38;;
23632;SDS011;11993;48.748;9.166;2024-01-30T06:24:24;9.23;;;4.95;;
23632;SDS011;11993;48.748;9.166;2024-01-30T06:26:50;8.55;;;5.00;;
23632;SDS011;11993;48.748;9.166;2024-01-30T06:29:15;8.57;;;5.20;;
23632;SDS011;11993;48.748;9.166;2024-01-30T06:31:41;10.25;;;6.07;;
23632;SDS011;11993;48.748;9.166;2024-01-30T06:34:08;8.90;;;6.03;;
23632;SDS011;11993;48.748;9.166;2024-01-30T06:36:37;16.05;;;6.20;;
23632;SDS011;11993;48.748;9.166;2024-01-30T06:39:02;10.55;;;5.90;;
23632;SDS011;11993;48.748;9.166;2024-01-30T06:41:28;8.52;;;5.28;;
23632;SDS011;11993;48.748;9.166;2024-01-30T06:43:54;11.75;;;6.47;;
23632;SDS011;11993;48.748;9.166;2024-01-30T06:46:20;6.95;;;4.50;;
23632;SDS011;11993;48.748;9.166;2024-01-30T06:48:46;7.10;;;4.30;;
23632;SDS011;11993;48.748;9.166;2024-01-30T06:51:11;9.70;;;4.60;;
23632;SDS011;11993;48.748;9.166;2024-01-30T06:53:37;6.80;;;4.30;;
23632;SDS011;11993;48.748;9.166;2024-01-30T06:56:03;9.38;;;4.50;;
23632;SDS011;11993;48.748;9.166;2024-01-30T06:58:29;9.93;;;4.50;;
23632;SDS011;11993;48.748;9.166;2024-01-30T07:00:55;9.55;;;5.13;;
23632;SDS011;11993;48.748;9.166;2024-01-30T07:03:21;6.60;;;3.88;;
23632;SDS011;11993;48.748;9.166;2024-01-30T07:05:47;5.05;;;3.67;;
23632;SDS011;11993;48.748;9.166;2024-01-30T07:08:12;8.88;;;4.18;;
23632;SDS011;11993;48.748;9.166;2024-01-30T07:10:38;7.70;;;3.60;;
23632;SDS011;11993;48.748;9.166;2024-01-30T07:13:03;5.28;;;3.90;;
23632;SDS011;11993;48.748;9.166;2024-01-30T07:15:30;7.88;;;4.18;;
23632;SDS011;11993;48.748;9.166;2024-01-30T07:17:56;6.63;;;3.83;;
23632;SDS011;11993;48.748;9.166;2024-01-30T07:20:21;9.63;;;4.63;;
23632;SDS011;11993;48.748;9.166;2024-01-30T07:22:47;9.38;;;4.13;;
23632;SDS011;11993;48.748;9.166;2024-01-30T07:25:13;7.65;;;4.25;;
23632;SDS011;11993;48.748;9.166;2024-01-30T07:27:38;6.75;;;4.45;;
23632;SDS011;11993;48.748;9.166;2024-01-30T07:30:04;8.00;;;4.38;;
23632;SDS011;11993;48.748;9.166;2024-01-30T07:32:30;10.75;;;4.65;;
23632;SDS011;11993;48.748;9.166;2024-01-30T07:34:56;8.57;;;4.60;;
23632;SDS011;11993;48.748;9.166;2024-01-30T07:37:22;13.43;;;7.55;;
23632;SDS011;11993;48.748;9.166;2024-01-30T07:39:47;8.10;;;4.38;;
23632;SDS011;11993;48.748;9.166;2024-01-30T07:42:13;5.93;;;3.95;;
23632;SDS011;11993;48.748;9.166;2024-01-30T07:44:39;6.70;;;4.05;;
23632;SDS011;11993;48.748;9.166;2024-01-30T07:47:04;9.70;;;4.40;;
23632;SDS011;11993;48.748;9.166;2024-01-30T07:49:30;8.50;;;4.90;;
23632;SDS011;11993;48.748;9.166;2024-01-30T07:51:56;9.75;;;4.63;;
23632;SDS011;11993;48.748;9.166;2024-01-30T07:54:22;7.68;;;4.50;;
23632;SDS011;11993;48.748;9.166;2024-01-30T07:56:48;7.28;;;5.20;;
23632;SDS011;11993;48.748;9.166;2024-01-30T07:59:14;12.32;;;5.45;;
23632;SDS011;11993;48.748;9.166;2024-01-30T08:01:39;8.35;;;4.80;;
23632;SDS011;11993;48.748;9.166;2024-01-30T08:04:05;14.43;;;5.20;;
23632;SDS011;11993;48.748;9.166;2024-01-30T08:06:31;16.92;;;5.57;;
23632;SDS011;11993;48.748;9.166;2024-01-30T08:08:56;8.75;;;5.43;;
23632;SDS011;11993;48.748;9.166;2024-01-30T08:11:24;12.25;;;5.63;;
23632;SDS011;11993;48.748;9.166;2024-01-30T08:13:54;8.55;;;5.70;;
23632;SDS011;11993;48.748;9.166;2024-01-30T08:16:20;7.43;;;5.22;;
23632;SDS011;11993;48.748;9.166;2024-01-30T08:18:45;9.77;;;5.25;;
23632;SDS011;11993;48.748;9.166;2024-01-30T08:21:11;8.75;;;5.03;;
23632;SDS011;11993;48.748;9.166;2024-01-30T08:23:40;10.85;;;5.05;;
23632;SDS011;11993;48.748;9.166;2024-01-30T08:26:06;8.57;;;4.90;;
23632;SDS011;11993;48.748;9.166;2024-01-30T08:28:31;11.27;;;5.55;;
23632;SDS011;11993;48.748;9.166;2024-01-30T08:30:57;8.85;;;5.53;;
23632;SDS011;11993;48.748;9.166;2024-01-30T08:33:22;8.88;;;5.35;;
23632;SDS011;11993;48.748;9.166;2024-01-30T08:35:48;10.38;;;5.47;;
23632;SDS011;11993;48.748;9.166;2024-01-30T08:38:13;12.88;;;5.18;;
23632;SDS011;11993;48.748;9.166;2024-01-30T08:40:39;8.90;;;4.90;;
23632;SDS011;11993;48.748;9.166;2024-01-30T08:43:05;6.70;;;4.20;;
23632;SDS011;11993;48.748;9.166;2024-01-30T08:45:30;9.25;;;4.63;;
23632;SDS011;11993;48.748;9.166;2024-01-30T08:47:56;8.82;;;4.32;;
23632;SDS011;11993;48.748;9.166;2024-01-30T08:50:21;11.65;;;4.82;;
23632;SDS011;11993;48.748;9.166;2024-01-30T08:52:47;10.15;;;4.97;;
23632;SDS011;11993;48.748;9.166;2024-01-30T08:55:12;7.88;;;4.47;;
23632;SDS011;11993;48.748;9.166;2024-01-30T08:57:38;8.95;;;5.18;;
23632;SDS011;11993;48.748;9.166;2024-01-30T09:00:04;11.45;;;4.28;;
23632;SDS011;11993;48.748;9.166;2024-01-30T09:02:34;7.32;;;4.80;;
23632;SDS011;11993;48.748;9.166;2024-01-30T09:04:59;9.63;;;4.38;;
23632;SDS011;11993;48.748;9.166;2024-01-30T09:07:25;7.93;;;4.45;;
23632;SDS011;11993;48.748;9.166;2024-01-30T09:09:50;8.57;;;4.55;;
23632;SDS011;11993;48.748;9.166;2024-01-30T09:12:16;9.32;;;4.47;;
23632;SDS011;11993;48.748;9.166;2024-01-30T09:14:41;11.98;;;5.25;;
23632;SDS011;11993;48.748;9.166;2024-01-30T09:17:07;9.77;;;5.03;;
23632;SDS011;11993;48.748;9.166;2024-01-30T09:19:33;11.90;;;5.30;;
23632;SDS011;11993;48.748;9.166;2024-01-30T09:21:59;7.45;;;5.05;;
23632;SDS011;11993;48.748;9.166;2024-01-30T09:24:25;10.75;;;4.85;;
23632;SDS011;11993;48.748;9.166;2024-01-30T09:26:51;9.77;;;5.22;;
23632;SDS011;11993;48.748;9.166;2024-01-30T09:29:17;11.05;;;5.25;;
23632;SDS011;11993;48.748;9.166;2024-01-30T09:31:43;7.53;;;4.97;;
23632;SDS011;11993;48.748;9.166;2024-01-30T09:34:10;9.65;;;5.25;;
23632;SDS011;11993;48.748;9.166;2024-01-30T09:36:35;7.85;;;5.00;;
23632;SDS011;11993;48.748;9.166;2024-01-30T09:39:01;9.85;;;4.55;;
23632;SDS011;11993;48.748;9.166;2024-01-30T09:41:27;7.05;;;4.70;;
23632;SDS011;11993;48.748;9.166;2024-01-30T09:43:53;8.32;;;4.45;;
23632;SDS011;11993;48.748;9.166;2024-01-30T09:46:22;28.45;;;4.93;;
23632;SDS011;11993;48.748;9.166;2024-01-30T09:48:53;8.40;;;5.32;;
23632;SDS011;11993;48.748;9.166;2024-01-30T09:51:20;10.90;;;4.97;;
23632;SDS011;11993;48.748;9.166;2024-01-30T09:53:47;8.27;;;4.00;;
23632;SDS011;11993;48.748;9.166;2024-01-30T09:56:14;10.88;;;4.55;;
23632;SDS011;11993;48.748;9.166;2024-01-30T09:58:39;9.35;;;3.95;;
23632;SDS011;11993;48.748;9.166;2024-01-30T10:01:05;8.63;;;4.20;;
23632;SDS011;11993;48.748;9.166;2024-01-30T10:03:31;11.82;;;4.90;;
23632;SDS011;11993;48.748;9.166;2024-01-30T10:05:56;10.32;;;4.20;;
23632;SDS011;11993;48.748;9.166;2024-01-30T10:08:22;10.10;;;4.47;;
23632;SDS011;11993;48.748;9.166;2024-01-30T10:10:48;12.75;;;4.50;;
23632;SDS011;11993;48.748;9.166;2024-01-30T10:13:15;9.20;;;3.78;;
23632;SDS011;11993;48.748;9.166;2024-01-30T10:15:41;11.95;;;4.18;;
23632;SDS011;11993;48.748;9.166;2024-01-30T10:18:07;9.07;;;4.28;;
23632;SDS011;11993;48.748;9.166;2024-01-30T10:20:35;9.02;;;3.78;;
23632;SDS011;11993;48.748;9.166;2024-01-30T10:23:01;10.00;;;3.72;;
23632;SDS011;11993;48.748;9.166;2024-01-30T10:25:27;13.25;;;3.65;;
23632;SDS011;11993;48.748;9.166;2024-01-30T10:27:55;6.38;;;3.40;;
23632;SDS011;11993;48.748;9.166;2024-01-30T10:30:21;13.90;;;3.72;;
23632;SDS011;11993;48.748;9.166;2024-01-30T10:32:50;11.25;;;3.58;;
23632;SDS011;11993;48.748;9.166;2024-01-30T10:35:16;6.25;;;3.28;;
23632;SDS011;11993;48.748;9.166;2024-01-30T10:37:46;11.68;;;3.53;;
23632;SDS011;11993;48.748;9.166;2024-01-30T10:40:13;7.88;;;3.28;;
23632;SDS011;11993;48.748;9.166;2024-01-30T10:42:42;7.93;;;3.38;;
23632;SDS011;11993;48.748;9.166;2024-01-30T10:45:09;7.78;;;3.17;;
23632;SDS011;11993;48.748;9.166;2024-01-30T10:47:42;6.43;;;3.33;;
23632;SDS011;11993;48.748;9.166;2024-01-30T10:50:13;4.95;;;2.50;;
23632;SDS011;11993;48.748;9.166;2024-01-30T10:52:39;7.15;;;2.65;;
23632;SDS011;11993;48.748;9.166;2024-01-30T10:55:07;4.15;;;2.10;;
23632;SDS011;11993;48.748;9.166;2024-01-30T10:57:34;10.77;;;2.40;;
23632;SDS011;11993;48.748;9.166;2024-01-30T11:00:01;4.88;;;2.40;;
23632;SDS011;11993;48.748;9.166;2024-01-30T11:02:46;8.77;;;3.63;;
23632;SDS011;11993;48.748;9.166;2024-01-30T11:05:13;3.78;;;2.53;;
23632;SDS011;11993;48.748;9.166;2024-01-30T11:07:40;3.08;;;2.08;;
23632;SDS011;11993;48.748;9.166;2024-01-30T11:10:06;10.10;;;2.60;;
23632;SDS011;11993;48.748;9.166;2024-01-30T11:12:37;6.10;;;2.53;;
23632;SDS011;11993;48.748;9.166;2024-01-30T11:15:12;5.43;;;2.38;;
23632;SDS011;11993;48.748;9.166;2024-01-30T11:17:40;5.55;;;2.78;;
23632;SDS011;11993;48.748;9.166;2024-01-30T11:20:10;5.22;;;2.38;;
23632;SDS011;11993;48.748;9.166;2024-01-30T11:22:45;7.00;;;2.40;;
23632;SDS011;11993;48.748;9.166;2024-01-30T11:25:15;4.72;;;2.70;;
23632;SDS011;11993;48.748;9.166;2024-01-30T11:27:45;6.10;;;2.60;;
23632;SDS011;11993;48.748;9.166;2024-01-30T11:30:20;3.75;;;2.22;;
23632;SDS011;11993;48.748;9.166;2024-01-30T11:32:59;4.80;;;2.25;;
23632;SDS011;11993;48.748;9.166;2024-01-30T11:35:33;5.95;;;2.20;;
23632;SDS011;11993;48.748;9.166;2024-01-30T11:37:59;6.10;;;2.33;;
23632;SDS011;11993;48.748;9.166;2024-01-30T11:40:30;3.35;;;2.03;;
23632;SDS011;11993;48.748;9.166;2024-01-30T11:42:57;4.15;;;1.92;;
23632;SDS011;11993;48.748;9.166;2024-01-30T11:45:24;6.45;;;2.40;;
23632;SDS011;11993;48.748;9.166;2024-01-30T11:47:51;14.10;;;2.20;;
23632;SDS011;11993;48.748;9.166;2024-01-30T11:50:17;5.78;;;2.40;;
23632;SDS011;11993;48.748;9.166;2024-01-30T11:52:42;3.17;;;2.30;;
23632;SDS011;11993;48.748;9.166;2024-01-30T11:55:08;6.50;;;1.92;;
23632;SDS011;11993;48.748;9.166;2024-01-30T11:57:35;4.60;;;2.60;;
23632;SDS011;11993;48.748;9.166;2024-01-30T12:00:02;4.32;;;2.00;;
23632;SDS011;11993;48.748;9.166;2024-01-30T12:02:33;3.70;;;2.08;;
23632;SDS011;11993;48.748;9.166;2024-01-30T12:05:02;2.85;;;2.00;;
23632;SDS011;11993;48.748;9.166;2024-01-30T12:07:29;13.20;;;3.13;;
23632;SDS011;11993;48.748;9.166;2024-01-30T12:09:55;6.40;;;2.50;;
23632;SDS011;11993;48.748;9.166;2024-01-30T12:12:22;4.32;;;2.47;;
23632;SDS011;11993;48.748;9.166;2024-01-30T12:14:52;3.72;;;2.20;;
23632;SDS011;11993;48.748;9.166;2024-01-30T12:17:31;4.35;;;2.03;;
23632;SDS011;11993;48.748;9.166;2024-01-30T12:20:08;4.68;;;2.17;;
23632;SDS011;11993;48.748;9.166;2024-01-30T12:22:38;3.80;;;2.00;;
23632;SDS011;11993;48.748;9.166;2024-01-30T12:25:09;3.90;;;2.17;;
23632;SDS011;11993;48.748;9.166;2024-01-30T12:27:39;4.57;;;2.40;;
23632;SDS011;11993;48.748;9.166;2024-01-30T12:30:10;10.52;;;2.55;;
23632;SDS011;11993;48.748;9.166;2024-01-30T12:32:42;8.88;;;2.63;;
23632;SDS011;11993;48.748;9.166;2024-01-30T12:35:10;3.53;;;1.80;;
23632;SDS011;11993;48.748;9.166;2024-01-30T12:37:36;3.55;;;2.05;;
23632;SDS011;11993;48.748;9.166;2024-01-30T12:40:02;4.68;;;2.28;;
23632;SDS011;11993;48.748;9.166;2024-01-30T12:42:28;5.22;;;2.67;;
23632;SDS011;11993;48.748;9.166;2024-01-30T12:44:53;7.45;;;2.60;;
23632;SDS011;11993;48.748;9.166;2024-01-30T12:47:21;7.30;;;2.53;;
23632;SDS011;11993;48.748;9.166;2024-01-30T12:49:47;4.05;;;2.25;;
23632;SDS011;11993;48.748;9.166;2024-01-30T12:52:13;9.57;;;2.22;;
23632;SDS011;11993;48.748;9.166;2024-01-30T12:54:41;4.68;;;2.00;;
23632;SDS011;11993;48.748;9.166;2024-01-30T12:57:06;5.90;;;2.47;;
23632;SDS011;11993;48.748;9.166;2024-01-30T12:59:32;6.40;;;2.03;;
23632;SDS011;11993;48.748;9.166;2024-01-30T13:01:59;8.80;;;2.58;;
23632;SDS011;11993;48.748;9.166;2024-01-30T13:04:25;4.45;;;2.53;;
23632;SDS011;11993;48.748;9.166;2024-01-30T13:06:52;3.63;;;1.95;;
23632;SDS011;11993;48.748;9.166;2024-01-30T13:09:17;4.97;;;2.30;;
23632;SDS011;11993;48.748;9.166;2024-01-30T13:11:43;5.22;;;2.30;;
23632;SDS011;11993;48.748;9.166;2024-01-30T13:14:08;5.03;;;2.13;;
23632;SDS011;11993;48.748;9.166;2024-01-30T13:16:34;4.20;;;2.10;;
23632;SDS011;11993;48.748;9.166;2024-01-30T13:18:59;5.18;;;2.15;;
23632;SDS011;11993;48.748;9.166;2024-01-30T13:21:26;4.50;;;2.45;;
23632;SDS011;11993;48.748;9.166;2024-01-30T13:23:55;6.28;;;1.98;;
23632;SDS011;11993;48.748;9.166;2024-01-30T13:26:20;6.13;;;2.10;;
23632;SDS011;11993;48.748;9.166;2024-01-30T13:28:46;5.82;;;2.00;;
23632;SDS011;11993;48.748;9.166;2024-01-30T13:31:12;6.80;;;2.35;;
23632;SDS011;11993;48.748;9.166;2024-01-30T13:33:39;3.42;;;2.03;;
23632;SDS011;11993;48.748;9.166;2024-01-30T13:36:05;5.68;;;2.38;;
23632;SDS011;11993;48.748;9.166;2024-01-30T13:38:31;6.07;;;2.58;;
23632;SDS011;11993;48.748;9.166;2024-01-30T13:40:57;3.90;;;2.40;;
23632;SDS011;11993;48.748;9.166;2024-01-30T13:43:23;4.57;;;2.33;;
23632;SDS011;11993;48.748;9.166;2024-01-30T13:45:48;4.13;;;2.13;;
23632;SDS011;11993;48.748;9.166;2024-01-30T13:48:14;4.75;;;2.38;;
23632;SDS011;11993;48.748;9.166;2024-01-30T13:50:40;5.95;;;2.38;;
23632;SDS011;11993;48.748;9.166;2024-01-30T13:53:05;4.40;;;2.33;;
23632;SDS011;11993;48.748;9.166;2024-01-30T13:55:31;13.23;;;2.72;;
23632;SDS011;11993;48.748;9.166;2024-01-30T13:57:57;4.70;;;1.85;;
23632;SDS011;11993;48.748;9.166;2024-01-30T14:00:23;6.03;;;2.05;;
23632;SDS011;11993;48.748;9.166;2024-01-30T14:02:50;6.20;;;1.92;;
23632;SDS011;11993;48.748;9.166;2024-01-30T14:05:19;4.60;;;1.95;;
23632;SDS011;11993;48.748;9.166;2024-01-30T14:07:46;8.20;;;2.47;;
23632;SDS011;11993;48.748;9.166;2024-01-30T14:10:12;4.82;;;2.05;;
23632;SDS011;11993;48.748;9.166;2024-01-30T14:12:37;7.55;;;2.30;;
23632;SDS011;11993;48.748;9.166;2024-01-30T14:15:03;4.20;;;2.25;;
23632;SDS011;11993;48.748;9.166;2024-01-30T14:17:31;5.20;;;2.30;;
23632;SDS011;11993;48.748;9.166;2024-01-30T14:19:56;4.38;;;2.40;;
23632;SDS011;11993;48.748;9.166;2024-01-30T14:22:22;4.70;;;2.60;;
23632;SDS011;11993;48.748;9.166;2024-01-30T14:24:49;3.22;;;1.92;;
23632;SDS011;11993;48.748;9.166;2024-01-30T14:27:14;4.80;;;2.28;;
23632;SDS011;11993;48.748;9.166;2024-01-30T14:29:40;10.23;;;2.80;;
23632;SDS011;11993;48.748;9.166;2024-01-30T14:32:07;4.47;;;2.70;;
23632;SDS011;11993;48.748;9.166;2024-01-30T14:34:32;18.30;;;10.05;;
23632;SDS011;11993;48.748;9.166;2024-01-30T14:37:00;7.22;;;2.83;;
23632;SDS011;11993;48.748;9.166;2024-01-30T14:39:26;5.97;;;2.80;;
23632;SDS011;11993;48.748;9.166;2024-01-30T14:41:51;5.80;;;2.42;;